createdAt,value
2023-01-04T00:00:00.631Z,84
2023-01-04T00:00:31.755Z,84
2023-01-04T00:00:52.864Z,84
2023-01-04T00:01:15.489Z,84
2023-01-04T00:01:51.873Z,84
2023-01-04T00:02:22.425Z,84
2023-01-04T00:02:54.571Z,84
2023-01-04T00:03:26.434Z,83
2023-01-04T00:03:58.477Z,83
2023-01-04T00:04:30.429Z,83
2023-01-04T00:04:54.589Z,83
2023-01-04T00:05:15.823Z,84
2023-01-04T00:05:50.413Z,83
2023-01-04T00:06:23.081Z,83
2023-01-04T00:06:54.877Z,83
2023-01-04T00:07:27.010Z,83
2023-01-04T00:07:58.144Z,83
2023-01-04T00:08:30.587Z,83
2023-01-04T00:08:53.217Z,83
2023-01-04T00:09:15.624Z,84
2023-01-04T00:09:51.017Z,84
2023-01-04T00:10:22.394Z,84
2023-01-04T00:10:54.196Z,84
2023-01-04T00:11:26.251Z,84
2023-01-04T00:11:59.941Z,84
2023-01-04T00:12:31.055Z,84
2023-01-04T00:12:54.009Z,84
2023-01-04T00:13:18.861Z,84
2023-01-04T00:13:51.354Z,83
2023-01-04T00:14:22.604Z,84
2023-01-04T00:14:54.165Z,83
2023-01-04T00:15:26.430Z,83
2023-01-04T00:16:02.482Z,83
2023-01-04T00:16:30.486Z,83
2023-01-04T00:16:53.108Z,83
2023-01-04T00:17:18.305Z,84
2023-01-04T00:17:53.062Z,84
2023-01-04T00:18:22.396Z,84
2023-01-04T00:18:55.586Z,84
2023-01-04T00:19:26.690Z,84
2023-01-04T00:19:58.184Z,84
2023-01-04T00:20:30.077Z,84
2023-01-04T00:20:53.110Z,84
2023-01-04T00:21:15.727Z,84
2023-01-04T00:21:50.372Z,84
2023-01-04T00:22:27.718Z,84
2023-01-04T00:22:54.809Z,84
2023-01-04T00:23:26.371Z,84
2023-01-04T00:23:58.226Z,84
2023-01-04T00:24:30.305Z,84
2023-01-04T00:24:53.063Z,84
2023-01-04T00:25:15.461Z,84
2023-01-04T00:25:51.205Z,83
2023-01-04T00:26:22.195Z,83
2023-01-04T00:26:54.754Z,84
2023-01-04T00:27:26.194Z,84
2023-01-04T00:27:58.460Z,84
2023-01-04T00:28:30.239Z,84
2023-01-04T00:28:54.606Z,84
2023-01-04T00:29:15.841Z,84
2023-01-04T00:29:50.072Z,84
2023-01-04T00:30:22.145Z,84
2023-01-04T00:30:54.190Z,84
2023-01-04T00:31:27.030Z,84
2023-01-04T00:31:58.756Z,84
2023-01-04T00:32:31.200Z,84
2023-01-04T00:32:53.771Z,84
2023-01-04T00:33:16.044Z,84
2023-01-04T00:33:51.477Z,84
2023-01-04T00:34:22.295Z,84
2023-01-04T00:34:54.774Z,84
2023-01-04T00:35:44.685Z,84
2023-01-04T00:35:58.926Z,83
2023-01-04T00:36:30.190Z,83
2023-01-04T00:36:52.837Z,83
2023-01-04T00:37:15.249Z,83
2023-01-04T00:37:52.281Z,83
2023-01-04T00:38:22.315Z,83
2023-01-04T00:38:54.170Z,83
2023-01-04T00:39:26.467Z,83
2023-01-04T00:39:58.153Z,83
2023-01-04T00:40:30.861Z,84
2023-01-04T00:40:53.466Z,84
2023-01-04T00:41:34.832Z,84
2023-01-04T00:42:00.225Z,84
2023-01-04T00:42:20.416Z,84
2023-01-04T00:42:54.344Z,83
2023-01-04T00:43:26.813Z,83
2023-01-04T00:43:58.721Z,83
2023-01-04T00:44:30.435Z,83
2023-01-04T00:44:52.982Z,83
2023-01-04T00:45:15.465Z,83
2023-01-04T00:45:50.413Z,83
2023-01-04T00:46:22.542Z,83
2023-01-04T00:46:54.160Z,83
2023-01-04T00:47:26.220Z,83
2023-01-04T00:47:58.624Z,83
2023-01-04T00:48:30.849Z,83
2023-01-04T00:48:58.156Z,83
2023-01-04T00:49:16.094Z,83
2023-01-04T00:49:51.693Z,84
2023-01-04T00:50:22.100Z,83
2023-01-04T00:50:54.796Z,83
2023-01-04T00:51:26.128Z,83
2023-01-04T00:51:58.363Z,83
2023-01-04T00:52:30.090Z,83
2023-01-04T00:52:52.774Z,83
2023-01-04T00:53:15.137Z,84
2023-01-04T00:53:50.136Z,84
2023-01-04T00:54:22.288Z,84
2023-01-04T00:54:54.201Z,84
2023-01-04T00:55:26.288Z,84
2023-01-04T00:55:58.246Z,84
2023-01-04T00:56:30.454Z,84
2023-01-04T00:56:53.198Z,84
2023-01-04T00:57:15.507Z,83
2023-01-04T00:57:50.283Z,84
2023-01-04T00:58:22.794Z,84
2023-01-04T00:58:54.652Z,83
2023-01-04T00:59:26.183Z,83
2023-01-04T01:00:01.922Z,83
2023-01-04T01:00:23.959Z,82
2023-01-04T01:00:58.080Z,82
2023-01-04T01:01:34.436Z,82
2023-01-04T01:01:57.145Z,82
2023-01-04T01:02:19.492Z,82
2023-01-04T01:02:54.427Z,82
2023-01-04T01:03:26.412Z,82
2023-01-04T01:03:58.407Z,82
2023-01-04T01:04:30.188Z,82
2023-01-04T01:04:53.935Z,82
2023-01-04T01:05:16.449Z,82
2023-01-04T01:05:50.300Z,82
2023-01-04T01:06:22.081Z,82
2023-01-04T01:06:54.094Z,81
2023-01-04T01:07:26.305Z,81
2023-01-04T01:07:58.427Z,82
2023-01-04T01:08:30.274Z,82
2023-01-04T01:08:53.040Z,82
2023-01-04T01:09:15.363Z,83
2023-01-04T01:09:50.315Z,82
2023-01-04T01:10:22.031Z,82
2023-01-04T01:10:54.145Z,82
2023-01-04T01:11:26.667Z,82
2023-01-04T01:11:58.406Z,82
2023-01-04T01:12:30.050Z,82
2023-01-04T01:12:52.896Z,82
2023-01-04T01:13:15.187Z,82
2023-01-04T01:13:50.400Z,82
2023-01-04T01:14:23.703Z,82
2023-01-04T01:14:58.611Z,82
2023-01-04T01:15:26.357Z,82
2023-01-04T01:15:58.377Z,82
2023-01-04T01:16:53.932Z,82
2023-01-04T01:17:02.067Z,82
2023-01-04T01:17:34.496Z,82
2023-01-04T01:17:57.314Z,82
2023-01-04T01:18:19.579Z,81
2023-01-04T01:18:55.564Z,81
2023-01-04T01:19:26.162Z,82
2023-01-04T01:19:58.149Z,81
2023-01-04T01:20:30.238Z,81
2023-01-04T01:20:53.661Z,81
2023-01-04T01:21:16.029Z,81
2023-01-04T01:21:50.060Z,81
2023-01-04T01:22:15.984Z,81
2023-01-04T01:22:54.591Z,81
2023-01-04T01:23:26.882Z,81
2023-01-04T01:23:58.176Z,81
2023-01-04T01:24:30.457Z,81
2023-01-04T01:24:53.312Z,81
2023-01-04T01:25:15.586Z,81
2023-01-04T01:25:50.120Z,80
2023-01-04T01:26:22.379Z,80
2023-01-04T01:26:54.939Z,80
2023-01-04T01:27:26.187Z,80
2023-01-04T01:27:58.247Z,80
2023-01-04T01:28:30.012Z,80
2023-01-04T01:28:52.777Z,80
2023-01-04T01:29:15.005Z,80
2023-01-04T01:29:50.208Z,79
2023-01-04T01:30:22.256Z,79
2023-01-04T01:30:54.242Z,79
2023-01-04T01:31:26.576Z,80
2023-01-04T01:31:58.147Z,80
2023-01-04T01:32:30.725Z,80
2023-01-04T01:32:54.204Z,80
2023-01-04T01:33:16.642Z,81
2023-01-04T01:33:50.493Z,80
2023-01-04T01:34:22.597Z,80
2023-01-04T01:34:54.412Z,80
2023-01-04T01:35:26.354Z,80
2023-01-04T01:35:58.304Z,80
2023-01-04T01:36:30.353Z,80
2023-01-04T01:36:52.833Z,80
2023-01-04T01:37:16.728Z,80
2023-01-04T01:37:50.150Z,81
2023-01-04T01:38:21.984Z,81
2023-01-04T01:38:54.060Z,80
2023-01-04T01:39:26.119Z,81
2023-01-04T01:39:58.221Z,81
2023-01-04T01:40:30.378Z,81
2023-01-04T01:40:53.193Z,81
2023-01-04T01:41:15.523Z,81
2023-01-04T01:41:50.394Z,81
2023-01-04T01:42:22.103Z,81
2023-01-04T01:42:54.226Z,80
2023-01-04T01:43:26.312Z,81
2023-01-04T01:43:58.421Z,81
2023-01-04T01:44:30.472Z,81
2023-01-04T01:44:53.134Z,81
2023-01-04T01:45:15.999Z,80
2023-01-04T01:45:50.227Z,80
2023-01-04T01:46:22.280Z,80
2023-01-04T01:46:54.023Z,80
2023-01-04T01:47:26.234Z,80
2023-01-04T01:47:58.028Z,80
2023-01-04T01:48:31.106Z,80
2023-01-04T01:48:53.586Z,80
2023-01-04T01:49:15.949Z,80
2023-01-04T01:49:50.101Z,80
2023-01-04T01:50:22.218Z,80
2023-01-04T01:50:55.345Z,80
2023-01-04T01:51:26.665Z,80
2023-01-04T01:51:58.400Z,80
2023-01-04T01:52:30.152Z,80
2023-01-04T01:52:52.868Z,80
2023-01-04T01:53:15.731Z,80
2023-01-04T01:53:50.008Z,80
2023-01-04T01:54:22.259Z,80
2023-01-04T01:54:54.339Z,80
2023-01-04T01:55:26.201Z,80
2023-01-04T01:55:58.149Z,80
2023-01-04T01:56:31.037Z,80
2023-01-04T01:56:53.276Z,80
2023-01-04T01:57:16.125Z,80
2023-01-04T01:57:50.436Z,80
2023-01-04T01:58:22.487Z,80
2023-01-04T01:58:54.766Z,80
2023-01-04T01:59:26.524Z,80
2023-01-04T01:59:58.536Z,81
2023-01-04T02:00:31.624Z,81
2023-01-04T02:00:52.823Z,81
2023-01-04T02:01:15.580Z,81
2023-01-04T02:01:50.904Z,81
2023-01-04T02:02:38.426Z,81
2023-01-04T02:03:00.819Z,81
2023-01-04T02:03:23.201Z,81
2023-01-04T02:03:58.061Z,81
2023-01-04T02:04:30.430Z,81
2023-01-04T02:04:53.512Z,81
2023-01-04T02:05:15.858Z,81
2023-01-04T02:05:50.187Z,82
2023-01-04T02:06:22.206Z,82
2023-01-04T02:06:54.249Z,82
2023-01-04T02:07:26.171Z,82
2023-01-04T02:07:58.144Z,82
2023-01-04T02:08:30.048Z,82
2023-01-04T02:08:53.138Z,82
2023-01-04T02:09:15.858Z,82
2023-01-04T02:09:50.222Z,82
2023-01-04T02:10:21.998Z,82
2023-01-04T02:10:54.152Z,82
2023-01-04T02:11:26.007Z,82
2023-01-04T02:11:57.972Z,82
2023-01-04T02:12:30.085Z,82
2023-01-04T02:12:52.907Z,82
2023-01-04T02:13:15.211Z,82
2023-01-04T02:13:50.142Z,82
2023-01-04T02:14:22.073Z,82
2023-01-04T02:14:53.997Z,82
2023-01-04T02:15:26.225Z,82
2023-01-04T02:15:58.117Z,82
2023-01-04T02:16:30.082Z,82
2023-01-04T02:16:52.825Z,82
2023-01-04T02:17:15.070Z,83
2023-01-04T02:17:50.161Z,83
2023-01-04T02:18:22.125Z,83
2023-01-04T02:18:54.285Z,83
2023-01-04T02:19:26.029Z,83
2023-01-04T02:19:58.129Z,83
2023-01-04T02:20:30.159Z,83
2023-01-04T02:20:53.800Z,83
2023-01-04T02:21:15.956Z,83
2023-01-04T02:21:50.137Z,83
2023-01-04T02:22:22.136Z,83
2023-01-04T02:22:54.389Z,83
2023-01-04T02:23:26.106Z,83
2023-01-04T02:23:58.144Z,83
2023-01-04T02:24:30.111Z,84
2023-01-04T02:24:53.044Z,84
2023-01-04T02:25:15.196Z,84
2023-01-04T02:25:49.992Z,84
2023-01-04T02:26:22.198Z,85
2023-01-04T02:26:54.373Z,85
2023-01-04T02:27:26.107Z,85
2023-01-04T02:27:58.112Z,85
2023-01-04T02:28:29.957Z,85
2023-01-04T02:28:53.097Z,85
2023-01-04T02:29:15.382Z,86
2023-01-04T02:29:50.085Z,86
2023-01-04T02:30:22.229Z,86
2023-01-04T02:30:54.158Z,86
2023-01-04T02:31:26.111Z,86
2023-01-04T02:31:58.096Z,86
2023-01-04T02:32:30.317Z,86
2023-01-04T02:32:52.998Z,86
2023-01-04T02:33:15.539Z,86
2023-01-04T02:33:49.962Z,86
2023-01-04T02:34:22.126Z,86
2023-01-04T02:34:58.329Z,86
2023-01-04T02:35:26.093Z,86
2023-01-04T02:35:58.002Z,86
2023-01-04T02:36:30.252Z,86
2023-01-04T02:36:53.074Z,86
2023-01-04T02:37:15.274Z,86
2023-01-04T02:37:50.100Z,86
2023-01-04T02:38:22.020Z,87
2023-01-04T02:38:54.425Z,87
2023-01-04T02:39:27.605Z,86
2023-01-04T02:39:58.027Z,87
2023-01-04T02:40:29.963Z,86
2023-01-04T02:40:52.513Z,86
2023-01-04T02:41:14.901Z,87
2023-01-04T02:41:50.197Z,87
2023-01-04T02:42:22.075Z,87
2023-01-04T02:42:54.176Z,87
2023-01-04T02:43:26.033Z,87
2023-01-04T02:43:58.193Z,87
2023-01-04T02:44:30.092Z,87
2023-01-04T02:44:52.971Z,87
2023-01-04T02:45:15.321Z,87
2023-01-04T02:45:50.189Z,87
2023-01-04T02:46:22.140Z,88
2023-01-04T02:46:54.682Z,88
2023-01-04T02:47:26.535Z,88
2023-01-04T02:47:58.196Z,88
2023-01-04T02:48:30.302Z,88
2023-01-04T02:48:52.974Z,88
2023-01-04T02:49:15.341Z,88
2023-01-04T02:49:50.476Z,88
2023-01-04T02:50:22.333Z,88
2023-01-04T02:50:54.101Z,88
2023-01-04T02:51:26.444Z,88
2023-01-04T02:51:58.189Z,88
2023-01-04T02:52:30.089Z,88
2023-01-04T02:52:52.993Z,88
2023-01-04T02:53:15.315Z,88
2023-01-04T02:53:50.161Z,88
2023-01-04T02:54:23.636Z,88
2023-01-04T02:54:54.042Z,88
2023-01-04T02:55:26.076Z,89
2023-01-04T02:55:58.216Z,89
2023-01-04T02:56:29.988Z,89
2023-01-04T02:56:52.988Z,89
2023-01-04T02:57:15.204Z,89
2023-01-04T02:57:50.064Z,89
2023-01-04T02:58:22.237Z,89
2023-01-04T02:58:54.488Z,89
2023-01-04T02:59:26.025Z,89
2023-01-04T02:59:58.190Z,90
2023-01-04T03:00:26.937Z,90
2023-01-04T03:00:59.335Z,90
2023-01-04T03:01:34.944Z,90
2023-01-04T03:02:02.789Z,90
2023-01-04T03:02:29.448Z,90
2023-01-04T03:03:26.882Z,90
2023-01-04T03:03:59.802Z,90
2023-01-04T03:04:30.130Z,90
2023-01-04T03:04:53.159Z,90
2023-01-04T03:05:15.317Z,90
2023-01-04T03:05:50.095Z,90
2023-01-04T03:06:22.709Z,90
2023-01-04T03:06:56.500Z,90
2023-01-04T03:07:26.250Z,90
2023-01-04T03:07:58.312Z,90
2023-01-04T03:08:30.189Z,90
2023-01-04T03:08:52.789Z,90
2023-01-04T03:09:15.194Z,91
2023-01-04T03:09:50.109Z,90
2023-01-04T03:10:22.175Z,91
2023-01-04T03:10:54.202Z,91
2023-01-04T03:11:26.151Z,91
2023-01-04T03:11:58.288Z,91
2023-01-04T03:12:30.138Z,91
2023-01-04T03:12:53.276Z,91
2023-01-04T03:13:15.644Z,91
2023-01-04T03:13:50.149Z,91
2023-01-04T03:14:33.235Z,91
2023-01-04T03:14:54.681Z,91
2023-01-04T03:15:26.694Z,91
2023-01-04T03:15:58.168Z,91
2023-01-04T03:16:30.235Z,91
2023-01-04T03:16:52.904Z,91
2023-01-04T03:17:15.219Z,91
2023-01-04T03:17:50.217Z,91
2023-01-04T03:18:22.131Z,91
2023-01-04T03:18:54.226Z,91
2023-01-04T03:19:26.248Z,91
2023-01-04T03:19:58.357Z,91
2023-01-04T03:20:30.052Z,91
2023-01-04T03:20:52.822Z,91
2023-01-04T03:21:15.982Z,91
2023-01-04T03:21:50.688Z,91
2023-01-04T03:22:22.149Z,91
2023-01-04T03:22:54.369Z,91
2023-01-04T03:23:27.405Z,91
2023-01-04T03:23:58.167Z,91
2023-01-04T03:24:30.240Z,91
2023-01-04T03:24:53.315Z,90
2023-01-04T03:25:15.511Z,90
2023-01-04T03:25:51.282Z,91
2023-01-04T03:26:22.407Z,91
2023-01-04T03:26:56.777Z,90
2023-01-04T03:27:26.352Z,90
2023-01-04T03:27:58.598Z,90
2023-01-04T03:28:30.180Z,91
2023-01-04T03:28:52.831Z,91
2023-01-04T03:29:15.354Z,91
2023-01-04T03:29:50.031Z,91
2023-01-04T03:30:22.239Z,91
2023-01-04T03:30:54.227Z,91
2023-01-04T03:31:26.526Z,91
2023-01-04T03:31:58.157Z,91
2023-01-04T03:32:30.414Z,91
2023-01-04T03:32:53.180Z,91
2023-01-04T03:33:15.859Z,91
2023-01-04T03:33:50.692Z,91
2023-01-04T03:34:22.348Z,91
2023-01-04T03:34:55.433Z,91
2023-01-04T03:35:26.317Z,91
2023-01-04T03:35:58.162Z,91
2023-01-04T03:36:30.368Z,90
2023-01-04T03:36:52.997Z,90
2023-01-04T03:37:17.114Z,90
2023-01-04T03:37:50.111Z,90
2023-01-04T03:38:22.290Z,90
2023-01-04T03:38:54.175Z,90
2023-01-04T03:39:25.931Z,90
2023-01-04T03:39:58.002Z,90
2023-01-04T03:40:30.294Z,90
2023-01-04T03:40:53.177Z,90
2023-01-04T03:41:15.949Z,90
2023-01-04T03:41:50.140Z,90
2023-01-04T03:42:22.018Z,90
2023-01-04T03:42:54.578Z,90
2023-01-04T03:43:26.105Z,90
2023-01-04T03:43:58.044Z,90
2023-01-04T03:44:30.055Z,90
2023-01-04T03:44:52.896Z,90
2023-01-04T03:45:15.281Z,90
2023-01-04T03:45:50.177Z,90
2023-01-04T03:46:22.608Z,90
2023-01-04T03:46:54.556Z,90
2023-01-04T03:47:26.361Z,90
2023-01-04T03:47:58.355Z,90
2023-01-04T03:48:31.222Z,90
2023-01-04T03:48:53.445Z,90
2023-01-04T03:49:15.821Z,90
2023-01-04T03:49:50.188Z,90
2023-01-04T03:50:21.941Z,90
2023-01-04T03:50:55.397Z,90
2023-01-04T03:51:26.259Z,89
2023-01-04T03:52:00.635Z,89
2023-01-04T03:52:30.315Z,89
2023-01-04T03:52:52.601Z,89
2023-01-04T03:53:15.310Z,89
2023-01-04T03:53:50.146Z,89
2023-01-04T03:54:22.488Z,89
2023-01-04T03:54:54.129Z,88
2023-01-04T03:55:27.029Z,88
2023-01-04T03:55:58.054Z,88
2023-01-04T03:56:30.721Z,88
2023-01-04T03:56:53.548Z,88
2023-01-04T03:57:17.243Z,88
2023-01-04T03:57:52.732Z,88
2023-01-04T03:58:22.722Z,89
2023-01-04T03:58:54.786Z,89
2023-01-04T03:59:26.543Z,89
2023-01-04T03:59:58.619Z,89
2023-01-04T04:00:32.417Z,88
2023-01-04T04:00:53.576Z,88
2023-01-04T04:01:17.476Z,88
2023-01-04T04:01:50.271Z,88
2023-01-04T04:02:29.215Z,89
2023-01-04T04:02:51.604Z,88
2023-01-04T04:03:26.192Z,88
2023-01-04T04:03:58.346Z,88
2023-01-04T04:04:30.064Z,88
2023-01-04T04:04:54.986Z,88
2023-01-04T04:05:17.387Z,88
2023-01-04T04:05:50.121Z,89
2023-01-04T04:06:22.352Z,89
2023-01-04T04:06:54.234Z,89
2023-01-04T04:07:26.149Z,89
2023-01-04T04:07:57.996Z,89
2023-01-04T04:08:30.085Z,89
2023-01-04T04:08:53.352Z,89
2023-01-04T04:09:15.762Z,89
2023-01-04T04:09:50.088Z,89
2023-01-04T04:10:22.058Z,88
2023-01-04T04:10:53.986Z,88
2023-01-04T04:11:26.092Z,88
2023-01-04T04:11:57.939Z,88
2023-01-04T04:12:30.011Z,88
2023-01-04T04:12:54.303Z,88
2023-01-04T04:13:16.302Z,88
2023-01-04T04:13:49.946Z,88
2023-01-04T04:14:22.123Z,88
2023-01-04T04:14:54.086Z,88
2023-01-04T04:15:26.162Z,88
2023-01-04T04:15:58.117Z,88
2023-01-04T04:16:30.083Z,88
2023-01-04T04:16:52.925Z,88
2023-01-04T04:17:15.221Z,87
2023-01-04T04:17:50.021Z,87
2023-01-04T04:18:21.943Z,87
2023-01-04T04:18:54.097Z,87
2023-01-04T04:19:25.929Z,87
2023-01-04T04:19:58.163Z,87
2023-01-04T04:20:30.259Z,87
2023-01-04T04:20:54.929Z,87
2023-01-04T04:21:17.391Z,87
2023-01-04T04:21:50.085Z,87
2023-01-04T04:22:21.938Z,87
2023-01-04T04:22:54.318Z,87
2023-01-04T04:23:26.197Z,87
2023-01-04T04:23:58.443Z,87
2023-01-04T04:24:30.156Z,87
2023-01-04T04:24:52.799Z,87
2023-01-04T04:25:15.040Z,87
2023-01-04T04:25:50.139Z,87
2023-01-04T04:26:22.093Z,87
2023-01-04T04:26:53.902Z,86
2023-01-04T04:27:26.097Z,86
2023-01-04T04:27:58.030Z,86
2023-01-04T04:28:30.047Z,86
2023-01-04T04:28:52.871Z,86
2023-01-04T04:29:15.293Z,86
2023-01-04T04:29:50.263Z,86
2023-01-04T04:30:22.161Z,86
2023-01-04T04:30:53.884Z,86
2023-01-04T04:31:26.312Z,86
2023-01-04T04:31:58.105Z,86
2023-01-04T04:32:30.015Z,86
2023-01-04T04:32:52.879Z,86
2023-01-04T04:33:15.259Z,86
2023-01-04T04:33:50.040Z,86
2023-01-04T04:34:21.953Z,86
2023-01-04T04:34:54.119Z,86
2023-01-04T04:35:26.040Z,86
2023-01-04T04:35:57.980Z,87
2023-01-04T04:36:29.943Z,86
2023-01-04T04:36:53.263Z,86
2023-01-04T04:37:15.389Z,86
2023-01-04T04:37:50.119Z,86
2023-01-04T04:38:22.075Z,86
2023-01-04T04:38:54.075Z,86
2023-01-04T04:39:25.946Z,87
2023-01-04T04:39:58.355Z,87
2023-01-04T04:40:29.979Z,87
2023-01-04T04:40:52.854Z,87
2023-01-04T04:41:15.301Z,87
2023-01-04T04:41:50.063Z,87
2023-01-04T04:42:22.085Z,87
2023-01-04T04:42:53.935Z,88
2023-01-04T04:43:26.271Z,88
2023-01-04T04:43:58.023Z,88
2023-01-04T04:44:29.910Z,88
2023-01-04T04:44:52.856Z,88
2023-01-04T04:45:15.261Z,88
2023-01-04T04:45:50.139Z,87
2023-01-04T04:46:22.081Z,88
2023-01-04T04:46:54.154Z,88
2023-01-04T04:47:26.076Z,88
2023-01-04T04:47:58.091Z,88
2023-01-04T04:48:30.342Z,88
2023-01-04T04:48:52.855Z,88
2023-01-04T04:49:15.200Z,88
2023-01-04T04:49:50.131Z,88
2023-01-04T04:50:21.977Z,88
2023-01-04T04:50:54.063Z,88
2023-01-04T04:51:26.073Z,88
2023-01-04T04:51:58.157Z,88
2023-01-04T04:52:30.119Z,88
2023-01-04T04:52:56.235Z,88
2023-01-04T04:53:15.013Z,88
2023-01-04T04:53:50.136Z,88
2023-01-04T04:54:22.200Z,88
2023-01-04T04:54:54.023Z,88
2023-01-04T04:55:26.046Z,88
2023-01-04T04:55:58.059Z,88
2023-01-04T04:56:29.969Z,88
2023-01-04T04:56:52.975Z,88
2023-01-04T04:57:15.205Z,89
2023-01-04T04:57:49.936Z,89
2023-01-04T04:58:22.520Z,89
2023-01-04T04:58:53.955Z,89
2023-01-04T04:59:26.622Z,89
2023-01-04T04:59:58.065Z,89
2023-01-04T05:00:32.644Z,89
2023-01-04T05:00:53.152Z,89
2023-01-04T05:01:15.740Z,90
2023-01-04T05:01:50.244Z,89
2023-01-04T05:02:22.391Z,89
2023-01-04T05:02:55.574Z,89
2023-01-04T05:03:26.172Z,89
2023-01-04T05:03:58.529Z,89
2023-01-04T05:04:30.379Z,89
2023-01-04T05:04:52.921Z,89
2023-01-04T05:05:15.244Z,89
2023-01-04T05:05:50.217Z,89
2023-01-04T05:06:22.249Z,89
2023-01-04T05:06:55.665Z,89
2023-01-04T05:07:26.494Z,89
2023-01-04T05:07:58.278Z,89
2023-01-04T05:08:30.123Z,89
2023-01-04T05:08:53.668Z,89
2023-01-04T05:09:16.096Z,89
2023-01-04T05:09:49.981Z,89
2023-01-04T05:10:22.086Z,89
2023-01-04T05:10:54.043Z,89
2023-01-04T05:11:25.966Z,89
2023-01-04T05:11:58.041Z,89
2023-01-04T05:12:30.039Z,89
2023-01-04T05:12:57.667Z,89
2023-01-04T05:13:15.187Z,89
2023-01-04T05:13:50.017Z,89
2023-01-04T05:14:22.106Z,89
2023-01-04T05:14:53.952Z,89
2023-01-04T05:15:26.120Z,89
2023-01-04T05:15:57.985Z,89
2023-01-04T05:16:30.057Z,89
2023-01-04T05:16:52.783Z,90
2023-01-04T05:17:15.086Z,89
2023-01-04T05:17:49.980Z,90
2023-01-04T05:18:22.213Z,90
2023-01-04T05:18:54.117Z,90
2023-01-04T05:19:26.111Z,90
2023-01-04T05:19:57.985Z,90
2023-01-04T05:20:29.924Z,90
2023-01-04T05:20:52.751Z,90
2023-01-04T05:21:19.981Z,90
2023-01-04T05:21:50.191Z,90
2023-01-04T05:22:22.020Z,90
2023-01-04T05:22:54.369Z,90
2023-01-04T05:23:25.929Z,90
2023-01-04T05:23:57.928Z,90
2023-01-04T05:24:29.899Z,90
2023-01-04T05:24:53.096Z,90
2023-01-04T05:25:15.327Z,90
2023-01-04T05:25:50.079Z,90
2023-01-04T05:26:22.062Z,91
2023-01-04T05:26:54.013Z,91
2023-01-04T05:27:26.248Z,91
2023-01-04T05:27:58.115Z,91
2023-01-04T05:28:30.025Z,91
2023-01-04T05:28:54.144Z,91
2023-01-04T05:29:15.042Z,90
2023-01-04T05:29:50.087Z,90
2023-01-04T05:30:22.071Z,90
2023-01-04T05:30:54.006Z,90
2023-01-04T05:31:26.067Z,90
2023-01-04T05:31:58.006Z,90
2023-01-04T05:32:30.060Z,90
2023-01-04T05:32:52.825Z,90
2023-01-04T05:33:15.167Z,90
2023-01-04T05:33:50.029Z,90
2023-01-04T05:34:22.670Z,90
2023-01-04T05:34:53.957Z,90
2023-01-04T05:35:25.921Z,90
2023-01-04T05:35:58.343Z,90
2023-01-04T05:36:30.040Z,90
2023-01-04T05:36:52.761Z,90
2023-01-04T05:37:15.136Z,89
2023-01-04T05:37:50.350Z,89
2023-01-04T05:38:22.318Z,89
2023-01-04T05:38:54.055Z,89
2023-01-04T05:39:25.876Z,89
2023-01-04T05:39:58.106Z,89
2023-01-04T05:40:30.049Z,89
2023-01-04T05:40:53.418Z,88
2023-01-04T05:41:16.187Z,88
2023-01-04T05:41:49.974Z,88
2023-01-04T05:42:21.969Z,88
2023-01-04T05:42:54.035Z,88
2023-01-04T05:43:26.003Z,88
2023-01-04T05:43:57.893Z,88
2023-01-04T05:44:30.014Z,88
2023-01-04T05:44:52.998Z,88
2023-01-04T05:45:15.381Z,88
2023-01-04T05:45:50.168Z,88
2023-01-04T05:46:22.426Z,88
2023-01-04T05:46:53.981Z,88
2023-01-04T05:47:25.964Z,88
2023-01-04T05:47:57.827Z,88
2023-01-04T05:48:30.635Z,88
2023-01-04T05:48:53.573Z,88
2023-01-04T05:49:15.866Z,88
2023-01-04T05:49:49.916Z,88
2023-01-04T05:50:21.898Z,88
2023-01-04T05:50:54.038Z,88
2023-01-04T05:51:25.926Z,88
2023-01-04T05:51:57.874Z,88
2023-01-04T05:52:29.966Z,88
2023-01-04T05:52:52.683Z,88
2023-01-04T05:53:15.251Z,88
2023-01-04T05:53:50.031Z,88
2023-01-04T05:54:22.037Z,88
2023-01-04T05:54:54.035Z,88
2023-01-04T05:55:26.136Z,88
2023-01-04T05:55:58.251Z,88
2023-01-04T05:56:30.132Z,88
2023-01-04T05:56:53.897Z,88
2023-01-04T05:57:15.686Z,88
2023-01-04T05:57:50.016Z,88
2023-01-04T05:58:22.077Z,88
2023-01-04T05:58:53.837Z,88
2023-01-04T05:59:26.145Z,88
2023-01-04T05:59:57.964Z,88
2023-01-04T06:00:29.986Z,88
2023-01-04T06:00:52.945Z,88
2023-01-04T06:01:15.292Z,88
2023-01-04T06:01:51.635Z,88
2023-01-04T06:02:22.658Z,88
2023-01-04T06:03:26.510Z,88
2023-01-04T06:03:59.438Z,88
2023-01-04T06:04:30.065Z,88
2023-01-04T06:04:58.426Z,88
2023-01-04T06:05:15.447Z,88
2023-01-04T06:05:50.633Z,87
2023-01-04T06:06:22.137Z,87
2023-01-04T06:06:54.389Z,87
2023-01-04T06:07:26.523Z,87
2023-01-04T06:07:58.259Z,87
2023-01-04T06:08:29.964Z,87
2023-01-04T06:08:52.964Z,87
2023-01-04T06:09:15.362Z,87
2023-01-04T06:09:50.144Z,87
2023-01-04T06:10:22.135Z,87
2023-01-04T06:10:54.019Z,87
2023-01-04T06:11:27.764Z,87
2023-01-04T06:11:57.996Z,87
2023-01-04T06:12:29.985Z,87
2023-01-04T06:12:52.788Z,87
2023-01-04T06:13:15.166Z,87
2023-01-04T06:13:49.959Z,87
2023-01-04T06:14:22.034Z,87
2023-01-04T06:14:54.113Z,87
2023-01-04T06:15:26.065Z,87
2023-01-04T06:15:57.995Z,87
2023-01-04T06:16:30.073Z,87
2023-01-04T06:16:52.807Z,87
2023-01-04T06:17:15.158Z,87
2023-01-04T06:17:49.984Z,87
2023-01-04T06:18:22.314Z,87
2023-01-04T06:18:53.848Z,87
2023-01-04T06:19:26.065Z,87
2023-01-04T06:19:57.933Z,87
2023-01-04T06:20:29.994Z,87
2023-01-04T06:20:52.969Z,87
2023-01-04T06:21:15.228Z,87
2023-01-04T06:21:50.090Z,87
2023-01-04T06:22:24.567Z,87
2023-01-04T06:22:54.079Z,87
2023-01-04T06:23:26.061Z,87
2023-01-04T06:23:58.009Z,87
2023-01-04T06:24:29.852Z,87
2023-01-04T06:24:52.582Z,87
2023-01-04T06:25:16.485Z,87
2023-01-04T06:25:50.250Z,87
2023-01-04T06:26:21.892Z,87
2023-01-04T06:26:54.005Z,88
2023-01-04T06:27:25.846Z,88
2023-01-04T06:27:53.809Z,88
2023-01-04T06:28:26.714Z,87
2023-01-04T06:28:59.712Z,87
2023-01-04T06:29:34.074Z,87
2023-01-04T06:29:56.646Z,87
2023-01-04T06:30:19.748Z,87
2023-01-04T06:30:53.994Z,87
2023-01-04T06:31:26.074Z,88
2023-01-04T06:31:58.045Z,88
2023-01-04T06:32:30.215Z,88
2023-01-04T06:32:52.679Z,88
2023-01-04T06:33:15.404Z,88
2023-01-04T06:33:50.374Z,88
2023-01-04T06:34:28.551Z,88
2023-01-04T06:34:55.004Z,88
2023-01-04T06:35:26.491Z,88
2023-01-04T06:35:57.971Z,88
2023-01-04T06:36:29.906Z,88
2023-01-04T06:36:52.753Z,88
2023-01-04T06:37:15.191Z,88
2023-01-04T06:37:50.144Z,88
2023-01-04T06:38:22.076Z,88
2023-01-04T06:38:53.826Z,89
2023-01-04T06:39:25.978Z,89
2023-01-04T06:39:57.946Z,89
2023-01-04T06:40:30.070Z,89
2023-01-04T06:40:52.874Z,89
2023-01-04T06:41:15.176Z,89
2023-01-04T06:41:50.575Z,89
2023-01-04T06:42:21.981Z,89
2023-01-04T06:42:53.866Z,89
2023-01-04T06:43:26.256Z,89
2023-01-04T06:43:58.266Z,89
2023-01-04T06:44:29.940Z,89
2023-01-04T06:44:52.763Z,89
2023-01-04T06:45:16.128Z,89
2023-01-04T06:45:49.981Z,89
2023-01-04T06:46:22.133Z,89
2023-01-04T06:46:53.971Z,89
2023-01-04T06:47:26.063Z,89
2023-01-04T06:47:57.836Z,89
2023-01-04T06:48:31.193Z,89
2023-01-04T06:48:53.920Z,89
2023-01-04T06:49:16.924Z,89
2023-01-04T06:49:50.063Z,89
2023-01-04T06:50:22.024Z,89
2023-01-04T06:50:54.009Z,89
2023-01-04T06:51:26.050Z,89
2023-01-04T06:51:58.839Z,89
2023-01-04T06:52:29.887Z,89
2023-01-04T06:52:52.603Z,89
2023-01-04T06:53:15.061Z,89
2023-01-04T06:53:50.568Z,89
2023-01-04T06:54:22.691Z,89
2023-01-04T06:54:54.367Z,89
2023-01-04T06:55:26.228Z,90
2023-01-04T06:55:58.244Z,90
2023-01-04T06:56:30.479Z,90
2023-01-04T06:56:53.176Z,90
2023-01-04T06:57:15.754Z,89
2023-01-04T06:57:56.304Z,89
2023-01-04T06:58:22.009Z,89
2023-01-04T06:58:54.549Z,88
2023-01-04T06:59:26.809Z,88
2023-01-04T06:59:58.320Z,88
2023-01-04T07:00:35.405Z,89
2023-01-04T07:00:54.991Z,89
2023-01-04T07:01:17.370Z,89
2023-01-04T07:01:50.344Z,89
2023-01-04T07:02:25.170Z,89
2023-01-04T07:03:13.429Z,89
2023-01-04T07:03:42.220Z,89
2023-01-04T07:04:04.980Z,89
2023-01-04T07:04:27.243Z,89
2023-01-04T07:04:53.193Z,89
2023-01-04T07:05:14.868Z,89
2023-01-04T07:05:49.948Z,89
2023-01-04T07:06:21.998Z,89
2023-01-04T07:06:56.337Z,89
2023-01-04T07:07:26.118Z,89
2023-01-04T07:08:02.521Z,90
2023-01-04T07:08:29.918Z,90